57.9°F
Current conditions from King Hill
Updated every 5 minutes
 
  Thursday August 28, 2014

Station Historical Data
Daily Summary for February 19, 2012 Units:  Both    English   Metric
« Previous Day
Next Day »
Daily Weekly Monthly Yearly Custom
  High: Low: Average:
Temperature: 32.3 °F /  0.2 °C 20.2 °F /  -6.6 °C 25.3 °F /  -3.7 °C
Dew Point: 19.2 °F /  -7.1 °C 13.2 °F /  -10.4 °C 16.1 °F /  -8.8 °C
Humidity: 77% 51% 68%
Wind Speed: 7.0mph /  11.3km/h - 2.5mph /  4km/h
Wind Gust: 13.0mph /  20.9km/h - -
Wind- - West
Pressure: 30.08 in /  1018.5 hPa 30.01 in /  1016.1 hPa -
Precipitation: 0.00 in /  0 mm    
Historical Graphs
 
 
Tabular Data for February 19, 2012
Time Temperature Dew Point Pressure Wind Wind Speed Wind Gust Humidity Daily Rainfall
00:05 24.3 °F /  -4.3 °C 17.5 °F /  -8.1 °C 30.01in /  1016.1hPa NNW 1.0mph /  1.6km/h 5.0mph /  8km/h 75% 0.00in /  0mm
00:10 24.2 °F /  -4.3 °C 17.4 °F /  -8.1 °C 30.01in /  1016.1hPa NNW 1.0mph /  1.6km/h 6.0mph /  9.7km/h 75% 0.00in /  0mm
00:15 24.0 °F /  -4.4 °C 17.2 °F /  -8.2 °C 30.02in /  1016.5hPa Calm   6.0mph /  9.7km/h 75% 0.00in /  0mm
00:20 23.9 °F /  -4.5 °C 17.1 °F /  -8.3 °C 30.02in /  1016.5hPa NNW 1.0mph /  1.6km/h 5.0mph /  8km/h 75% 0.00in /  0mm
00:25 23.9 °F /  -4.5 °C 17.4 °F /  -8.1 °C 30.02in /  1016.5hPa NW 3.0mph /  4.8km/h 7.0mph /  11.3km/h 76% 0.00in /  0mm
00:30 24.0 °F /  -4.4 °C 17.2 °F /  -8.2 °C 30.02in /  1016.5hPa NW 3.0mph /  4.8km/h 7.0mph /  11.3km/h 75% 0.00in /  0mm
00:35 24.2 °F /  -4.3 °C 17.4 °F /  -8.1 °C 30.03in /  1016.8hPa NW 1.0mph /  1.6km/h 7.0mph /  11.3km/h 75% 0.00in /  0mm
00:40 24.2 °F /  -4.3 °C 17.4 °F /  -8.1 °C 30.03in /  1016.8hPa NW 5.0mph /  8km/h 9.0mph /  14.5km/h 75% 0.00in /  0mm
00:45 24.4 °F /  -4.2 °C 17.3 °F /  -8.2 °C 30.03in /  1016.8hPa NW 4.0mph /  6.4km/h 10.0mph /  16.1km/h 74% 0.00in /  0mm
00:50 24.4 °F /  -4.2 °C 17.3 °F /  -8.2 °C 30.03in /  1016.8hPa NW 4.0mph /  6.4km/h 10.0mph /  16.1km/h 74% 0.00in /  0mm
00:55 24.4 °F /  -4.2 °C 17.3 °F /  -8.2 °C 30.03in /  1016.8hPa NNW 3.0mph /  4.8km/h 13.0mph /  20.9km/h 74% 0.00in /  0mm
01:00 24.3 °F /  -4.3 °C 17.2 °F /  -8.2 °C 30.03in /  1016.8hPa NNW 3.0mph /  4.8km/h 13.0mph /  20.9km/h 74% 0.00in /  0mm
01:05 24.4 °F /  -4.2 °C 17.3 °F /  -8.2 °C 30.03in /  1016.8hPa NW 4.0mph /  6.4km/h 11.0mph /  17.7km/h 74% 0.00in /  0mm
01:10 24.5 °F /  -4.2 °C 17.4 °F /  -8.1 °C 30.03in /  1016.8hPa NNW 4.0mph /  6.4km/h 11.0mph /  17.7km/h 74% 0.00in /  0mm
01:15 24.6 °F /  -4.1 °C 17.5 °F /  -8.1 °C 30.03in /  1016.8hPa NW 5.0mph /  8km/h 10.0mph /  16.1km/h 74% 0.00in /  0mm
01:20 24.7 °F /  -4.1 °C 17.3 °F /  -8.2 °C 30.03in /  1016.8hPa NW 1.0mph /  1.6km/h 10.0mph /  16.1km/h 73% 0.00in /  0mm
01:25 24.6 °F /  -4.1 °C 17.2 °F /  -8.2 °C 30.04in /  1017.2hPa NW 4.0mph /  6.4km/h 8.0mph /  12.9km/h 73% 0.00in /  0mm
01:30 24.6 °F /  -4.1 °C 17.2 °F /  -8.2 °C 30.04in /  1017.2hPa NNW 3.0mph /  4.8km/h 8.0mph /  12.9km/h 73% 0.00in /  0mm
01:35 24.7 °F /  -4.1 °C 17.3 °F /  -8.2 °C 30.04in /  1017.2hPa NW 3.0mph /  4.8km/h 9.0mph /  14.5km/h 73% 0.00in /  0mm
01:40 24.7 °F /  -4.1 °C 17.3 °F /  -8.2 °C 30.04in /  1017.2hPa NW 2.0mph /  3.2km/h 9.0mph /  14.5km/h 73% 0.00in /  0mm
01:45 24.7 °F /  -4.1 °C 17.3 °F /  -8.2 °C 30.04in /  1017.2hPa NW 4.0mph /  6.4km/h 8.0mph /  12.9km/h 73% 0.00in /  0mm
01:50 24.7 °F /  -4.1 °C 17.0 °F /  -8.3 °C 30.04in /  1017.2hPa NNW 3.0mph /  4.8km/h 10.0mph /  16.1km/h 72% 0.00in /  0mm
01:55 24.7 °F /  -4.1 °C 17.0 °F /  -8.3 °C 30.04in /  1017.2hPa NW 3.0mph /  4.8km/h 10.0mph /  16.1km/h 72% 0.00in /  0mm
02:00 24.7 °F /  -4.1 °C 17.0 °F /  -8.3 °C 30.04in /  1017.2hPa NNW 3.0mph /  4.8km/h 8.0mph /  12.9km/h 72% 0.00in /  0mm
02:05 24.7 °F /  -4.1 °C 17.0 °F /  -8.3 °C 30.04in /  1017.2hPa NNW 3.0mph /  4.8km/h 10.0mph /  16.1km/h 72% 0.00in /  0mm
02:10 24.7 °F /  -4.1 °C 17.0 °F /  -8.3 °C 30.04in /  1017.2hPa NW 5.0mph /  8km/h 10.0mph /  16.1km/h 72% 0.00in /  0mm
02:15 24.7 °F /  -4.1 °C 17.0 °F /  -8.3 °C 30.04in /  1017.2hPa NNW 2.0mph /  3.2km/h 8.0mph /  12.9km/h 72% 0.00in /  0mm
02:20 24.7 °F /  -4.1 °C 17.0 °F /  -8.3 °C 30.04in /  1017.2hPa NNW 2.0mph /  3.2km/h 9.0mph /  14.5km/h 72% 0.00in /  0mm
02:30 24.6 °F /  -4.1 °C 16.9 °F /  -8.4 °C 30.03in /  1016.8hPa NW 4.0mph /  6.4km/h 8.0mph /  12.9km/h 72% 0.00in /  0mm
02:35 24.6 °F /  -4.1 °C 16.9 °F /  -8.4 °C 30.03in /  1016.8hPa Calm   9.0mph /  14.5km/h 72% 0.00in /  0mm
02:40 24.5 °F /  -4.2 °C 16.8 °F /  -8.4 °C 30.03in /  1016.8hPa NNE 3.0mph /  4.8km/h 9.0mph /  14.5km/h 72% 0.00in /  0mm
02:45 24.5 °F /  -4.2 °C 16.8 °F /  -8.4 °C 30.03in /  1016.8hPa North 2.0mph /  3.2km/h 9.0mph /  14.5km/h 72% 0.00in /  0mm
02:50 24.5 °F /  -4.2 °C 16.8 °F /  -8.4 °C 30.03in /  1016.8hPa NNW 1.0mph /  1.6km/h 9.0mph /  14.5km/h 72% 0.00in /  0mm
02:55 24.4 °F /  -4.2 °C 16.7 °F /  -8.5 °C 30.03in /  1016.8hPa NW 2.0mph /  3.2km/h 9.0mph /  14.5km/h 72% 0.00in /  0mm
03:00 24.4 °F /  -4.2 °C 17.0 °F /  -8.3 °C 30.03in /  1016.8hPa NNE 2.0mph /  3.2km/h 8.0mph /  12.9km/h 73% 0.00in /  0mm
03:05 24.3 °F /  -4.3 °C 16.9 °F /  -8.4 °C 30.03in /  1016.8hPa NNW 2.0mph /  3.2km/h 9.0mph /  14.5km/h 73% 0.00in /  0mm
03:10 24.2 °F /  -4.3 °C 17.1 °F /  -8.3 °C 30.03in /  1016.8hPa NNW 1.0mph /  1.6km/h 9.0mph /  14.5km/h 74% 0.00in /  0mm
03:15 24.2 °F /  -4.3 °C 16.8 °F /  -8.4 °C 30.03in /  1016.8hPa Calm   7.0mph /  11.3km/h 73% 0.00in /  0mm
03:20 24.1 °F /  -4.4 °C 17.0 °F /  -8.3 °C 30.03in /  1016.8hPa Calm   6.0mph /  9.7km/h 74% 0.00in /  0mm
03:25 24.1 °F /  -4.4 °C 17.0 °F /  -8.3 °C 30.03in /  1016.8hPa NNW 1.0mph /  1.6km/h 4.0mph /  6.4km/h 74% 0.00in /  0mm
03:30 24.0 °F /  -4.4 °C 16.9 °F /  -8.4 °C 30.02in /  1016.5hPa North 2.0mph /  3.2km/h 6.0mph /  9.7km/h 74% 0.00in /  0mm
03:35 23.9 °F /  -4.5 °C 16.8 °F /  -8.4 °C 30.02in /  1016.5hPa NNE 2.0mph /  3.2km/h 8.0mph /  12.9km/h 74% 0.00in /  0mm
03:40 23.8 °F /  -4.6 °C 16.7 °F /  -8.5 °C 30.02in /  1016.5hPa NNW 1.0mph /  1.6km/h 8.0mph /  12.9km/h 74% 0.00in /  0mm
03:45 23.7 °F /  -4.6 °C 16.6 °F /  -8.6 °C 30.02in /  1016.5hPa North 2.0mph /  3.2km/h 7.0mph /  11.3km/h 74% 0.00in /  0mm
03:50 23.6 °F /  -4.7 °C 16.5 °F /  -8.6 °C 30.03in /  1016.8hPa Calm   7.0mph /  11.3km/h 74% 0.00in /  0mm
03:55 23.5 °F /  -4.7 °C 16.7 °F /  -8.5 °C 30.03in /  1016.8hPa NNW 2.0mph /  3.2km/h 6.0mph /  9.7km/h 75% 0.00in /  0mm
04:00 23.4 °F /  -4.8 °C 16.6 °F /  -8.6 °C 30.03in /  1016.8hPa North 2.0mph /  3.2km/h 6.0mph /  9.7km/h 75% 0.00in /  0mm
04:05 23.4 °F /  -4.8 °C 16.6 °F /  -8.6 °C 30.03in /  1016.8hPa Calm   4.0mph /  6.4km/h 75% 0.00in /  0mm
04:10 23.4 °F /  -4.8 °C 16.6 °F /  -8.6 °C 30.03in /  1016.8hPa NNW 1.0mph /  1.6km/h 4.0mph /  6.4km/h 75% 0.00in /  0mm
04:15 23.3 °F /  -4.8 °C 16.6 °F /  -8.6 °C 30.03in /  1016.8hPa North 2.0mph /  3.2km/h 6.0mph /  9.7km/h 75% 0.00in /  0mm
04:20 23.3 °F /  -4.8 °C 16.6 °F /  -8.6 °C 30.04in /  1017.2hPa Calm   6.0mph /  9.7km/h 75% 0.00in /  0mm
04:25 23.2 °F /  -4.9 °C 16.8 °F /  -8.4 °C 30.04in /  1017.2hPa NE 2.0mph /  3.2km/h 7.0mph /  11.3km/h 76% 0.00in /  0mm
04:30 23.2 °F /  -4.9 °C 16.8 °F /  -8.4 °C 30.04in /  1017.2hPa Calm   7.0mph /  11.3km/h 76% 0.00in /  0mm
04:35 23.2 °F /  -4.9 °C 16.8 °F /  -8.4 °C 30.04in /  1017.2hPa NNE 1.0mph /  1.6km/h 5.0mph /  8km/h 76% 0.00in /  0mm
04:40 23.1 °F /  -4.9 °C 16.7 °F /  -8.5 °C 30.04in /  1017.2hPa Calm   5.0mph /  8km/h 76% 0.00in /  0mm
04:45 23.1 °F /  -4.9 °C 16.7 °F /  -8.5 °C 30.04in /  1017.2hPa North 1.0mph /  1.6km/h 5.0mph /  8km/h 76% 0.00in /  0mm
04:50 23.0 °F /  -5 °C 16.6 °F /  -8.6 °C 30.04in /  1017.2hPa Calm   5.0mph /  8km/h 76% 0.00in /  0mm
04:55 23.0 °F /  -5 °C 16.6 °F /  -8.6 °C 30.04in /  1017.2hPa Calm   5.0mph /  8km/h 76% 0.00in /  0mm
05:00 23.0 °F /  -5 °C 16.6 °F /  -8.6 °C 30.04in /  1017.2hPa North 1.0mph /  1.6km/h 6.0mph /  9.7km/h 76% 0.00in /  0mm
05:05 22.9 °F /  -5.1 °C 16.5 °F /  -8.6 °C 30.04in /  1017.2hPa NNE 2.0mph /  3.2km/h 9.0mph /  14.5km/h 76% 0.00in /  0mm
05:10 22.8 °F /  -5.1 °C 16.4 °F /  -8.7 °C 30.04in /  1017.2hPa NNE 2.0mph /  3.2km/h 9.0mph /  14.5km/h 76% 0.00in /  0mm
05:15 22.7 °F /  -5.2 °C 16.3 °F /  -8.7 °C 30.04in /  1017.2hPa NNE 1.0mph /  1.6km/h 7.0mph /  11.3km/h 76% 0.00in /  0mm
05:20 22.7 °F /  -5.2 °C 16.6 °F /  -8.6 °C 30.04in /  1017.2hPa North 1.0mph /  1.6km/h 7.0mph /  11.3km/h 77% 0.00in /  0mm
05:25 22.7 °F /  -5.2 °C 16.6 °F /  -8.6 °C 30.04in /  1017.2hPa North 2.0mph /  3.2km/h 5.0mph /  8km/h 77% 0.00in /  0mm
05:30 22.6 °F /  -5.2 °C 16.5 °F /  -8.6 °C 30.05in /  1017.5hPa North 1.0mph /  1.6km/h 9.0mph /  14.5km/h 77% 0.00in /  0mm
05:40 22.5 °F /  -5.3 °C 16.1 °F /  -8.8 °C 30.05in /  1017.5hPa North 3.0mph /  4.8km/h 8.0mph /  12.9km/h 76% 0.00in /  0mm
05:45 22.4 °F /  -5.3 °C 16.0 °F /  -8.9 °C 30.05in /  1017.5hPa North 3.0mph /  4.8km/h 7.0mph /  11.3km/h 76% 0.00in /  0mm
05:55 22.3 °F /  -5.4 °C 15.9 °F /  -8.9 °C 30.05in /  1017.5hPa Calm   8.0mph /  12.9km/h 76% 0.00in /  0mm
06:00 22.2 °F /  -5.4 °C 15.8 °F /  -9 °C 30.05in /  1017.5hPa NE 1.0mph /  1.6km/h 5.0mph /  8km/h 76% 0.00in /  0mm
06:05 22.1 °F /  -5.5 °C 15.7 °F /  -9.1 °C 30.05in /  1017.5hPa NNW 1.0mph /  1.6km/h 6.0mph /  9.7km/h 76% 0.00in /  0mm
06:10 22.1 °F /  -5.5 °C 15.7 °F /  -9.1 °C 30.05in /  1017.5hPa NE 2.0mph /  3.2km/h 7.0mph /  11.3km/h 76% 0.00in /  0mm
06:15 22.0 °F /  -5.6 °C 15.6 °F /  -9.1 °C 30.05in /  1017.5hPa Calm   7.0mph /  11.3km/h 76% 0.00in /  0mm
06:20 21.9 °F /  -5.6 °C 15.5 °F /  -9.2 °C 30.06in /  1017.8hPa Calm   5.0mph /  8km/h 76% 0.00in /  0mm
06:25 21.8 °F /  -5.7 °C 15.4 °F /  -9.2 °C 30.06in /  1017.8hPa Calm   3.0mph /  4.8km/h 76% 0.00in /  0mm
06:30 21.8 °F /  -5.7 °C 15.4 °F /  -9.2 °C 30.06in /  1017.8hPa Calm   2.0mph /  3.2km/h 76% 0.00in /  0mm
06:35 21.8 °F /  -5.7 °C 15.4 °F /  -9.2 °C 30.06in /  1017.8hPa Calm   2.0mph /  3.2km/h 76% 0.00in /  0mm
06:40 21.8 °F /  -5.7 °C 15.1 °F /  -9.4 °C 30.06in /  1017.8hPa Calm   4.0mph /  6.4km/h 75% 0.00in /  0mm
06:45 21.7 °F /  -5.7 °C 15.0 °F /  -9.4 °C 30.07in /  1018.2hPa NNE 1.0mph /  1.6km/h 4.0mph /  6.4km/h 75% 0.00in /  0mm
06:50 21.6 °F /  -5.8 °C 14.9 °F /  -9.5 °C 30.06in /  1017.8hPa Calm   4.0mph /  6.4km/h 75% 0.00in /  0mm
07:00 21.6 °F /  -5.8 °C 14.9 °F /  -9.5 °C 30.07in /  1018.2hPa Calm   4.0mph /  6.4km/h 75% 0.00in /  0mm
07:05 21.6 °F /  -5.8 °C 14.9 °F /  -9.5 °C 30.07in /  1018.2hPa Calm   4.0mph /  6.4km/h 75% 0.00in /  0mm
07:20 21.8 °F /  -5.7 °C 15.1 °F /  -9.4 °C 30.07in /  1018.2hPa Calm   2.0mph /  3.2km/h 75% 0.00in /  0mm
07:25 21.8 °F /  -5.7 °C 14.8 °F /  -9.6 °C 30.07in /  1018.2hPa ENE 1.0mph /  1.6km/h 5.0mph /  8km/h 74% 0.00in /  0mm
07:30 21.8 °F /  -5.7 °C 14.8 °F /  -9.6 °C 30.07in /  1018.2hPa Calm   5.0mph /  8km/h 74% 0.00in /  0mm
07:35 21.9 °F /  -5.6 °C 14.9 °F /  -9.5 °C 30.07in /  1018.2hPa NE 1.0mph /  1.6km/h 4.0mph /  6.4km/h 74% 0.00in /  0mm
07:40 21.9 °F /  -5.6 °C 14.9 °F /  -9.5 °C 30.07in /  1018.2hPa Calm   5.0mph /  8km/h 74% 0.00in /  0mm
07:45 22.0 °F /  -5.6 °C 15.0 °F /  -9.4 °C 30.07in /  1018.2hPa Calm   5.0mph /  8km/h 74% 0.00in /  0mm
07:50 22.1 °F /  -5.5 °C 15.1 °F /  -9.4 °C 30.07in /  1018.2hPa Calm   1.0mph /  1.6km/h 74% 0.00in /  0mm
07:55 22.2 °F /  -5.4 °C 15.2 °F /  -9.3 °C 30.07in /  1018.2hPa Calm   1.0mph /  1.6km/h 74% 0.00in /  0mm
08:00 22.4 °F /  -5.3 °C 15.1 °F /  -9.4 °C 30.07in /  1018.2hPa NNE 2.0mph /  3.2km/h 4.0mph /  6.4km/h 73% 0.00in /  0mm
08:10 22.7 °F /  -5.2 °C 15.3 °F /  -9.3 °C 30.07in /  1018.2hPa NNE 1.0mph /  1.6km/h 4.0mph /  6.4km/h 73% 0.00in /  0mm
08:20 23.1 °F /  -4.9 °C 15.4 °F /  -9.2 °C 30.07in /  1018.2hPa NNE 1.0mph /  1.6km/h 3.0mph /  4.8km/h 72% 0.00in /  0mm
08:25 23.3 °F /  -4.8 °C 15.6 °F /  -9.1 °C 30.08in /  1018.5hPa Calm   3.0mph /  4.8km/h 72% 0.00in /  0mm
08:30 23.5 °F /  -4.7 °C 15.8 °F /  -9 °C 30.08in /  1018.5hPa NNE 2.0mph /  3.2km/h 4.0mph /  6.4km/h 72% 0.00in /  0mm
08:35 23.5 °F /  -4.7 °C 15.5 °F /  -9.2 °C 30.08in /  1018.5hPa Calm   4.0mph /  6.4km/h 71% 0.00in /  0mm
08:40 23.5 °F /  -4.7 °C 15.2 °F /  -9.3 °C 30.08in /  1018.5hPa NNE 2.0mph /  3.2km/h 5.0mph /  8km/h 70% 0.00in /  0mm
08:50 23.7 °F /  -4.6 °C 15.4 °F /  -9.2 °C 30.08in /  1018.5hPa NW 4.0mph /  6.4km/h 10.0mph /  16.1km/h 70% 0.00in /  0mm
08:55 24.3 °F /  -4.3 °C 15.6 °F /  -9.1 °C 30.08in /  1018.5hPa NNW 2.0mph /  3.2km/h 10.0mph /  16.1km/h 69% 0.00in /  0mm
09:00 24.7 °F /  -4.1 °C 16.0 °F /  -8.9 °C 30.08in /  1018.5hPa NW 1.0mph /  1.6km/h 8.0mph /  12.9km/h 69% 0.00in /  0mm
09:05 24.7 °F /  -4.1 °C 15.6 °F /  -9.1 °C 30.08in /  1018.5hPa NW 1.0mph /  1.6km/h 9.0mph /  14.5km/h 68% 0.00in /  0mm
09:10 24.3 °F /  -4.3 °C 15.3 °F /  -9.3 °C 30.08in /  1018.5hPa North 2.0mph /  3.2km/h 10.0mph /  16.1km/h 68% 0.00in /  0mm
09:15 24.1 °F /  -4.4 °C 15.1 °F /  -9.4 °C 30.08in /  1018.5hPa NW 4.0mph /  6.4km/h 10.0mph /  16.1km/h 68% 0.00in /  0mm
09:20 23.8 °F /  -4.6 °C 15.1 °F /  -9.4 °C 30.08in /  1018.5hPa NW 1.0mph /  1.6km/h 10.0mph /  16.1km/h 69% 0.00in /  0mm
09:25 24.1 °F /  -4.4 °C 15.1 °F /  -9.4 °C 30.08in /  1018.5hPa NW 5.0mph /  8km/h 10.0mph /  16.1km/h 68% 0.00in /  0mm
09:35 26.0 °F /  -3.3 °C 16.5 °F /  -8.6 °C 30.08in /  1018.5hPa North 2.0mph /  3.2km/h 7.0mph /  11.3km/h 67% 0.00in /  0mm
09:40 26.8 °F /  -2.9 °C 16.6 °F /  -8.6 °C 30.08in /  1018.5hPa NW 1.0mph /  1.6km/h 7.0mph /  11.3km/h 65% 0.00in /  0mm
09:45 27.5 °F /  -2.5 °C 16.6 °F /  -8.6 °C 30.08in /  1018.5hPa North 3.0mph /  4.8km/h 10.0mph /  16.1km/h 63% 0.00in /  0mm
09:50 27.4 °F /  -2.6 °C 16.5 °F /  -8.6 °C 30.08in /  1018.5hPa North 2.0mph /  3.2km/h 10.0mph /  16.1km/h 63% 0.00in /  0mm
09:55 27.4 °F /  -2.6 °C 16.1 °F /  -8.8 °C 30.08in /  1018.5hPa NNW 2.0mph /  3.2km/h 6.0mph /  9.7km/h 62% 0.00in /  0mm
10:00 26.9 °F /  -2.8 °C 15.6 °F /  -9.1 °C 30.08in /  1018.5hPa NW 3.0mph /  4.8km/h 8.0mph /  12.9km/h 62% 0.00in /  0mm
10:05 26.7 °F /  -2.9 °C 15.8 °F /  -9 °C 30.08in /  1018.5hPa NNW 1.0mph /  1.6km/h 8.0mph /  12.9km/h 63% 0.00in /  0mm
10:10 26.7 °F /  -2.9 °C 16.2 °F /  -8.8 °C 30.08in /  1018.5hPa NW 3.0mph /  4.8km/h 6.0mph /  9.7km/h 64% 0.00in /  0mm
10:15 27.0 °F /  -2.8 °C 16.4 °F /  -8.7 °C 30.08in /  1018.5hPa NNE 1.0mph /  1.6km/h 6.0mph /  9.7km/h 64% 0.00in /  0mm
10:20 27.3 °F /  -2.6 °C 16.4 °F /  -8.7 °C 30.08in /  1018.5hPa North 2.0mph /  3.2km/h 5.0mph /  8km/h 63% 0.00in /  0mm
10:25 27.4 °F /  -2.6 °C 16.5 °F /  -8.6 °C 30.08in /  1018.5hPa North 1.0mph /  1.6km/h 5.0mph /  8km/h 63% 0.00in /  0mm
10:35 27.7 °F /  -2.4 °C 16.7 °F /  -8.5 °C 30.08in /  1018.5hPa NNE 1.0mph /  1.6km/h 6.0mph /  9.7km/h 63% 0.00in /  0mm
10:40 27.8 °F /  -2.3 °C 16.8 °F /  -8.4 °C 30.08in /  1018.5hPa Calm   6.0mph /  9.7km/h 63% 0.00in /  0mm
10:45 27.9 °F /  -2.3 °C 17.3 °F /  -8.2 °C 30.08in /  1018.5hPa Calm   6.0mph /  9.7km/h 64% 0.00in /  0mm
10:50 28.5 °F /  -1.9 °C 17.5 °F /  -8.1 °C 30.08in /  1018.5hPa NNW 2.0mph /  3.2km/h 4.0mph /  6.4km/h 63% 0.00in /  0mm
10:55 28.7 °F /  -1.8 °C 17.7 °F /  -7.9 °C 30.08in /  1018.5hPa Calm   5.0mph /  8km/h 63% 0.00in /  0mm
11:00 29.0 °F /  -1.7 °C 18.0 °F /  -7.8 °C 30.08in /  1018.5hPa North 2.0mph /  3.2km/h 6.0mph /  9.7km/h 63% 0.00in /  0mm
11:05 29.0 °F /  -1.7 °C 17.2 °F /  -8.2 °C 30.08in /  1018.5hPa North 2.0mph /  3.2km/h 6.0mph /  9.7km/h 61% 0.00in /  0mm
11:10 28.7 °F /  -1.8 °C 16.9 °F /  -8.4 °C 30.08in /  1018.5hPa NW 1.0mph /  1.6km/h 6.0mph /  9.7km/h 61% 0.00in /  0mm
11:15 27.9 °F /  -2.3 °C 16.2 °F /  -8.8 °C 30.08in /  1018.5hPa Calm   6.0mph /  9.7km/h 61% 0.00in /  0mm
11:20 27.9 °F /  -2.3 °C 16.6 °F /  -8.6 °C 30.08in /  1018.5hPa NW 3.0mph /  4.8km/h 6.0mph /  9.7km/h 62% 0.00in /  0mm
11:25 28.0 °F /  -2.2 °C 17.0 °F /  -8.3 °C 30.08in /  1018.5hPa NNW 1.0mph /  1.6km/h 5.0mph /  8km/h 63% 0.00in /  0mm
11:30 28.8 °F /  -1.8 °C 17.0 °F /  -8.3 °C 30.08in /  1018.5hPa West 2.0mph /  3.2km/h 5.0mph /  8km/h 61% 0.00in /  0mm
11:40 29.6 °F /  -1.3 °C 17.4 °F /  -8.1 °C 30.07in /  1018.2hPa NW 3.0mph /  4.8km/h 8.0mph /  12.9km/h 60% 0.00in /  0mm
11:50 29.6 °F /  -1.3 °C 17.4 °F /  -8.1 °C 30.07in /  1018.2hPa NW 4.0mph /  6.4km/h 6.0mph /  9.7km/h 60% 0.00in /  0mm
11:55 29.6 °F /  -1.3 °C 17.4 °F /  -8.1 °C 30.07in /  1018.2hPa WNW 6.0mph /  9.7km/h 9.0mph /  14.5km/h 60% 0.00in /  0mm
12:00 29.4 °F /  -1.4 °C 17.2 °F /  -8.2 °C 30.07in /  1018.2hPa West 5.0mph /  8km/h 9.0mph /  14.5km/h 60% 0.00in /  0mm
12:05 29.8 °F /  -1.2 °C 18.0 °F /  -7.8 °C 30.07in /  1018.2hPa Calm   8.0mph /  12.9km/h 61% 0.00in /  0mm
12:10 30.6 °F /  -0.8 °C 18.7 °F /  -7.4 °C 30.07in /  1018.2hPa NW 3.0mph /  4.8km/h 6.0mph /  9.7km/h 61% 0.00in /  0mm
12:15 30.6 °F /  -0.8 °C 17.6 °F /  -8 °C 30.06in /  1017.8hPa NW 4.0mph /  6.4km/h 8.0mph /  12.9km/h 58% 0.00in /  0mm
12:20 30.7 °F /  -0.7 °C 17.7 °F /  -7.9 °C 30.06in /  1017.8hPa Calm   8.0mph /  12.9km/h 58% 0.00in /  0mm
12:25 31.1 °F /  -0.5 °C 17.6 °F /  -8 °C 30.06in /  1017.8hPa North 1.0mph /  1.6km/h 4.0mph /  6.4km/h 57% 0.00in /  0mm
12:30 30.6 °F /  -0.8 °C 18.0 °F /  -7.8 °C 30.06in /  1017.8hPa North 3.0mph /  4.8km/h 8.0mph /  12.9km/h 59% 0.00in /  0mm
12:35 30.0 °F /  -1.1 °C 17.4 °F /  -8.1 °C 30.05in /  1017.5hPa Calm   8.0mph /  12.9km/h 59% 0.00in /  0mm
12:40 29.7 °F /  -1.3 °C 18.3 °F /  -7.6 °C 30.06in /  1017.8hPa NW 3.0mph /  4.8km/h 6.0mph /  9.7km/h 62% 0.00in /  0mm
12:45 29.7 °F /  -1.3 °C 17.9 °F /  -7.8 °C 30.05in /  1017.5hPa NNE 3.0mph /  4.8km/h 6.0mph /  9.7km/h 61% 0.00in /  0mm
12:55 29.7 °F /  -1.3 °C 18.3 °F /  -7.6 °C 30.05in /  1017.5hPa NNW 2.0mph /  3.2km/h 6.0mph /  9.7km/h 62% 0.00in /  0mm
13:00 29.6 °F /  -1.3 °C 18.6 °F /  -7.4 °C 30.05in /  1017.5hPa NNW 5.0mph /  8km/h 10.0mph /  16.1km/h 63% 0.00in /  0mm
13:05 29.9 °F /  -1.2 °C 19.2 °F /  -7.1 °C 30.05in /  1017.5hPa NNW 3.0mph /  4.8km/h 10.0mph /  16.1km/h 64% 0.00in /  0mm
13:10 29.5 °F /  -1.4 °C 18.5 °F /  -7.5 °C 30.05in /  1017.5hPa NW 5.0mph /  8km/h 10.0mph /  16.1km/h 63% 0.00in /  0mm
13:15 29.1 °F /  -1.6 °C 18.8 °F /  -7.3 °C 30.05in /  1017.5hPa NW 3.0mph /  4.8km/h 9.0mph /  14.5km/h 65% 0.00in /  0mm
13:20 29.2 °F /  -1.6 °C 18.9 °F /  -7.3 °C 30.05in /  1017.5hPa NW 3.0mph /  4.8km/h 9.0mph /  14.5km/h 65% 0.00in /  0mm
13:25 29.8 °F /  -1.2 °C 19.1 °F /  -7.2 °C 30.05in /  1017.5hPa NNW 4.0mph /  6.4km/h 9.0mph /  14.5km/h 64% 0.00in /  0mm
13:30 30.2 °F /  -1 °C 19.1 °F /  -7.2 °C 30.05in /  1017.5hPa NW 3.0mph /  4.8km/h 8.0mph /  12.9km/h 63% 0.00in /  0mm
13:35 30.5 °F /  -0.8 °C 19.0 °F /  -7.2 °C 30.05in /  1017.5hPa NNW 3.0mph /  4.8km/h 8.0mph /  12.9km/h 62% 0.00in /  0mm
13:45 30.5 °F /  -0.8 °C 17.9 °F /  -7.8 °C 30.05in /  1017.5hPa NNW 3.0mph /  4.8km/h 9.0mph /  14.5km/h 59% 0.00in /  0mm
13:50 30.8 °F /  -0.7 °C 18.2 °F /  -7.7 °C 30.04in /  1017.2hPa NW 1.0mph /  1.6km/h 9.0mph /  14.5km/h 59% 0.00in /  0mm
13:55 31.3 °F /  -0.4 °C 18.6 °F /  -7.4 °C 30.04in /  1017.2hPa WNW 4.0mph /  6.4km/h 7.0mph /  11.3km/h 59% 0.00in /  0mm
14:00 32.0 °F /  0 °C 18.5 °F /  -7.5 °C 30.04in /  1017.2hPa NW 4.0mph /  6.4km/h 8.0mph /  12.9km/h 57% 0.00in /  0mm
14:10 31.1 °F /  -0.5 °C 17.6 °F /  -8 °C 30.04in /  1017.2hPa NNW 5.0mph /  8km/h 9.0mph /  14.5km/h 57% 0.00in /  0mm
14:15 31.1 °F /  -0.5 °C 18.0 °F /  -7.8 °C 30.04in /  1017.2hPa NW 3.0mph /  4.8km/h 9.0mph /  14.5km/h 58% 0.00in /  0mm
14:20 31.3 °F /  -0.4 °C 17.0 °F /  -8.3 °C 30.04in /  1017.2hPa WNW 7.0mph /  11.3km/h 10.0mph /  16.1km/h 55% 0.00in /  0mm
14:30 32.1 °F /  0.1 °C 16.9 °F /  -8.4 °C 30.04in /  1017.2hPa NW 7.0mph /  11.3km/h 12.0mph /  19.3km/h 53% 0.00in /  0mm
14:40 32.1 °F /  0.1 °C 16.9 °F /  -8.4 °C 30.04in /  1017.2hPa NNW 4.0mph /  6.4km/h 8.0mph /  12.9km/h 53% 0.00in /  0mm
14:45 32.1 °F /  0.1 °C 17.3 °F /  -8.2 °C 30.04in /  1017.2hPa North 4.0mph /  6.4km/h 8.0mph /  12.9km/h 54% 0.00in /  0mm
14:50 32.0 °F /  0 °C 17.2 °F /  -8.2 °C 30.04in /  1017.2hPa NW 6.0mph /  9.7km/h 13.0mph /  20.9km/h 54% 0.00in /  0mm
14:55 31.5 °F /  -0.3 °C 17.2 °F /  -8.2 °C 30.04in /  1017.2hPa NNW 4.0mph /  6.4km/h 13.0mph /  20.9km/h 55% 0.00in /  0mm
15:00 31.8 °F /  -0.1 °C 17.0 °F /  -8.3 °C 30.03in /  1016.8hPa NW 4.0mph /  6.4km/h 8.0mph /  12.9km/h 54% 0.00in /  0mm
15:05 32.1 °F /  0.1 °C 16.9 °F /  -8.4 °C 30.03in /  1016.8hPa NNW 3.0mph /  4.8km/h 8.0mph /  12.9km/h 53% 0.00in /  0mm
15:10 32.0 °F /  0 °C 17.7 °F /  -7.9 °C 30.03in /  1016.8hPa NW 3.0mph /  4.8km/h 8.0mph /  12.9km/h 55% 0.00in /  0mm
15:15 32.3 °F /  0.2 °C 17.5 °F /  -8.1 °C 30.03in /  1016.8hPa NW 2.0mph /  3.2km/h 7.0mph /  11.3km/h 54% 0.00in /  0mm
15:20 32.2 °F /  0.1 °C 17.0 °F /  -8.3 °C 30.03in /  1016.8hPa WNW 4.0mph /  6.4km/h 8.0mph /  12.9km/h 53% 0.00in /  0mm
15:25 32.3 °F /  0.2 °C 16.6 °F /  -8.6 °C 30.02in /  1016.5hPa NNW 5.0mph /  8km/h 11.0mph /  17.7km/h 52% 0.00in /  0mm
15:30 31.7 °F /  -0.2 °C 15.6 °F /  -9.1 °C 30.02in /  1016.5hPa WNW 5.0mph /  8km/h 11.0mph /  17.7km/h 51% 0.00in /  0mm
15:35 31.4 °F /  -0.3 °C 16.7 °F /  -8.5 °C 30.02in /  1016.5hPa NW 4.0mph /  6.4km/h 10.0mph /  16.1km/h 54% 0.00in /  0mm
15:45 31.6 °F /  -0.2 °C 16.9 °F /  -8.4 °C 30.02in /  1016.5hPa NNW 1.0mph /  1.6km/h 12.0mph /  19.3km/h 54% 0.00in /  0mm
15:55 31.0 °F /  -0.6 °C 15.0 °F /  -9.4 °C 30.02in /  1016.5hPa NW 5.0mph /  8km/h 13.0mph /  20.9km/h 51% 0.00in /  0mm
16:00 31.1 °F /  -0.5 °C 16.4 °F /  -8.7 °C 30.02in /  1016.5hPa North 1.0mph /  1.6km/h 9.0mph /  14.5km/h 54% 0.00in /  0mm
16:05 31.4 °F /  -0.3 °C 15.8 °F /  -9 °C 30.01in /  1016.1hPa NW 3.0mph /  4.8km/h 7.0mph /  11.3km/h 52% 0.00in /  0mm
16:10 31.3 °F /  -0.4 °C 16.1 °F /  -8.8 °C 30.01in /  1016.1hPa NW 2.0mph /  3.2km/h 7.0mph /  11.3km/h 53% 0.00in /  0mm
16:15 31.3 °F /  -0.4 °C 15.7 °F /  -9.1 °C 30.01in /  1016.1hPa NNW 2.0mph /  3.2km/h 6.0mph /  9.7km/h 52% 0.00in /  0mm
16:20 31.1 °F /  -0.5 °C 15.5 °F /  -9.2 °C 30.01in /  1016.1hPa NW 4.0mph /  6.4km/h 7.0mph /  11.3km/h 52% 0.00in /  0mm
16:25 31.0 °F /  -0.6 °C 15.9 °F /  -8.9 °C 30.01in /  1016.1hPa NNW 3.0mph /  4.8km/h 7.0mph /  11.3km/h 53% 0.00in /  0mm
16:35 31.1 °F /  -0.5 °C 15.5 °F /  -9.2 °C 30.02in /  1016.5hPa North 1.0mph /  1.6km/h 5.0mph /  8km/h 52% 0.00in /  0mm
16:40 30.9 °F /  -0.6 °C 15.3 °F /  -9.3 °C 30.01in /  1016.1hPa NNW 1.0mph /  1.6km/h 5.0mph /  8km/h 52% 0.00in /  0mm
16:45 30.6 °F /  -0.8 °C 15.5 °F /  -9.2 °C 30.02in /  1016.5hPa Calm   5.0mph /  8km/h 53% 0.00in /  0mm
16:50 29.9 °F /  -1.2 °C 14.8 °F /  -9.6 °C 30.02in /  1016.5hPa NW 3.0mph /  4.8km/h 8.0mph /  12.9km/h 53% 0.00in /  0mm
16:55 29.4 °F /  -1.4 °C 15.2 °F /  -9.3 °C 30.02in /  1016.5hPa Calm   8.0mph /  12.9km/h 55% 0.00in /  0mm
17:00 29.0 °F /  -1.7 °C 15.3 °F /  -9.3 °C 30.02in /  1016.5hPa Calm   6.0mph /  9.7km/h 56% 0.00in /  0mm
17:05 28.8 °F /  -1.8 °C 15.5 °F /  -9.2 °C 30.02in /  1016.5hPa NE 1.0mph /  1.6km/h 6.0mph /  9.7km/h 57% 0.00in /  0mm
17:10 28.3 °F /  -2.1 °C 15.4 °F /  -9.2 °C 30.02in /  1016.5hPa North 1.0mph /  1.6km/h 5.0mph /  8km/h 58% 0.00in /  0mm
17:15 27.9 °F /  -2.3 °C 15.0 °F /  -9.4 °C 30.02in /  1016.5hPa Calm   4.0mph /  6.4km/h 58% 0.00in /  0mm
17:20 27.4 °F /  -2.6 °C 15.3 °F /  -9.3 °C 30.02in /  1016.5hPa Calm   2.0mph /  3.2km/h 60% 0.00in /  0mm
17:30 26.6 °F /  -3 °C 15.0 °F /  -9.4 °C 30.02in /  1016.5hPa Calm   2.0mph /  3.2km/h 61% 0.00in /  0mm
17:40 26.1 °F /  -3.3 °C 15.2 °F /  -9.3 °C 30.02in /  1016.5hPa Calm   4.0mph /  6.4km/h 63% 0.00in /  0mm
17:45 25.8 °F /  -3.4 °C 15.3 °F /  -9.3 °C 30.02in /  1016.5hPa Calm   4.0mph /  6.4km/h 64% 0.00in /  0mm
17:50 25.6 °F /  -3.6 °C 15.5 °F /  -9.2 °C 30.02in /  1016.5hPa Calm   2.0mph /  3.2km/h 65% 0.00in /  0mm
17:55 25.2 °F /  -3.8 °C 15.4 °F /  -9.2 °C 30.03in /  1016.8hPa Calm   2.0mph /  3.2km/h 66% 0.00in /  0mm
18:00 25.1 °F /  -3.8 °C 15.3 °F /  -9.3 °C 30.03in /  1016.8hPa Calm   3.0mph /  4.8km/h 66% 0.00in /  0mm
18:05 25.0 °F /  -3.9 °C 15.2 °F /  -9.3 °C 30.03in /  1016.8hPa Calm   3.0mph /  4.8km/h 66% 0.00in /  0mm
18:10 24.9 °F /  -3.9 °C 15.2 °F /  -9.3 °C 30.03in /  1016.8hPa Calm   2.0mph /  3.2km/h 66% 0.00in /  0mm
18:15 24.7 °F /  -4.1 °C 15.0 °F /  -9.4 °C 30.03in /  1016.8hPa Calm     66% 0.00in /  0mm
18:20 24.5 °F /  -4.2 °C 15.1 °F /  -9.4 °C 30.03in /  1016.8hPa Calm     67% 0.00in /  0mm
18:25 24.3 °F /  -4.3 °C 14.9 °F /  -9.5 °C 30.04in /  1017.2hPa Calm     67% 0.00in /  0mm
18:30 24.2 °F /  -4.3 °C 14.8 °F /  -9.6 °C 30.04in /  1017.2hPa Calm     67% 0.00in /  0mm
18:35 24.1 °F /  -4.4 °C 14.7 °F /  -9.6 °C 30.04in /  1017.2hPa Calm     67% 0.00in /  0mm
18:40 24.1 °F /  -4.4 °C 14.7 °F /  -9.6 °C 30.04in /  1017.2hPa Calm     67% 0.00in /  0mm
18:45 24.0 °F /  -4.4 °C 15.0 °F /  -9.4 °C 30.04in /  1017.2hPa Calm     68% 0.00in /  0mm
18:50 23.9 °F /  -4.5 °C 14.9 °F /  -9.5 °C 30.04in /  1017.2hPa Calm     68% 0.00in /  0mm
18:55 23.8 °F /  -4.6 °C 15.1 °F /  -9.4 °C 30.04in /  1017.2hPa Calm     69% 0.00in /  0mm
19:00 23.7 °F /  -4.6 °C 15.0 °F /  -9.4 °C 30.04in /  1017.2hPa Calm   1.0mph /  1.6km/h 69% 0.00in /  0mm
19:05 23.6 °F /  -4.7 °C 14.9 °F /  -9.5 °C 30.04in /  1017.2hPa Calm   1.0mph /  1.6km/h 69% 0.00in /  0mm
19:10 23.6 °F /  -4.7 °C 15.3 °F /  -9.3 °C 30.04in /  1017.2hPa Calm   2.0mph /  3.2km/h 70% 0.00in /  0mm
19:15 23.4 °F /  -4.8 °C 15.1 °F /  -9.4 °C 30.04in /  1017.2hPa Calm   2.0mph /  3.2km/h 70% 0.00in /  0mm
19:20 23.4 °F /  -4.8 °C 15.4 °F /  -9.2 °C 30.05in /  1017.5hPa Calm   1.0mph /  1.6km/h 71% 0.00in /  0mm
19:25 23.3 °F /  -4.8 °C 15.3 °F /  -9.3 °C 30.05in /  1017.5hPa Calm     71% 0.00in /  0mm
19:30 23.1 °F /  -4.9 °C 15.4 °F /  -9.2 °C 30.05in /  1017.5hPa Calm     72% 0.00in /  0mm
19:45 22.4 °F /  -5.3 °C 14.7 °F /  -9.6 °C 30.05in /  1017.5hPa Calm     72% 0.00in /  0mm
19:50 22.0 °F /  -5.6 °C 14.7 °F /  -9.6 °C 30.05in /  1017.5hPa Calm     73% 0.00in /  0mm
19:55 21.7 °F /  -5.7 °C 14.7 °F /  -9.6 °C 30.05in /  1017.5hPa Calm     74% 0.00in /  0mm
20:00 21.5 °F /  -5.8 °C 14.8 °F /  -9.6 °C 30.05in /  1017.5hPa Calm   2.0mph /  3.2km/h 75% 0.00in /  0mm
20:05 21.5 °F /  -5.8 °C 14.8 °F /  -9.6 °C 30.05in /  1017.5hPa Calm   2.0mph /  3.2km/h 75% 0.00in /  0mm
20:10 21.3 °F /  -5.9 °C 14.6 °F /  -9.7 °C 30.05in /  1017.5hPa Calm   1.0mph /  1.6km/h 75% 0.00in /  0mm
20:15 21.4 °F /  -5.9 °C 14.7 °F /  -9.6 °C 30.05in /  1017.5hPa Calm   1.0mph /  1.6km/h 75% 0.00in /  0mm
20:20 21.6 °F /  -5.8 °C 14.9 °F /  -9.5 °C 30.05in /  1017.5hPa Calm     75% 0.00in /  0mm
20:25 21.8 °F /  -5.7 °C 15.1 °F /  -9.4 °C 30.05in /  1017.5hPa Calm   1.0mph /  1.6km/h 75% 0.00in /  0mm
20:30 21.9 °F /  -5.6 °C 14.9 °F /  -9.5 °C 30.05in /  1017.5hPa Calm   2.0mph /  3.2km/h 74% 0.00in /  0mm
20:35 22.0 °F /  -5.6 °C 15.0 °F /  -9.4 °C 30.05in /  1017.5hPa NNE 1.0mph /  1.6km/h 3.0mph /  4.8km/h 74% 0.00in /  0mm
20:40 22.1 °F /  -5.5 °C 15.1 °F /  -9.4 °C 30.05in /  1017.5hPa Calm   3.0mph /  4.8km/h 74% 0.00in /  0mm
20:45 22.2 °F /  -5.4 °C 14.9 °F /  -9.5 °C 30.06in /  1017.8hPa Calm   3.0mph /  4.8km/h 73% 0.00in /  0mm
20:50 22.1 °F /  -5.5 °C 14.8 °F /  -9.6 °C 30.05in /  1017.5hPa Calm   3.0mph /  4.8km/h 73% 0.00in /  0mm
20:55 22.1 °F /  -5.5 °C 14.8 °F /  -9.6 °C 30.05in /  1017.5hPa NNE 1.0mph /  1.6km/h 4.0mph /  6.4km/h 73% 0.00in /  0mm
21:00 21.9 °F /  -5.6 °C 14.6 °F /  -9.7 °C 30.05in /  1017.5hPa Calm   4.0mph /  6.4km/h 73% 0.00in /  0mm
21:05 21.7 °F /  -5.7 °C 14.7 °F /  -9.6 °C 30.05in /  1017.5hPa Calm   2.0mph /  3.2km/h 74% 0.00in /  0mm
21:10 21.4 °F /  -5.9 °C 14.4 °F /  -9.8 °C 30.05in /  1017.5hPa NNE 1.0mph /  1.6km/h 3.0mph /  4.8km/h 74% 0.00in /  0mm
21:15 21.3 °F /  -5.9 °C 14.3 °F /  -9.8 °C 30.05in /  1017.5hPa NNE 1.0mph /  1.6km/h 4.0mph /  6.4km/h 74% 0.00in /  0mm
21:20 21.3 °F /  -5.9 °C 14.3 °F /  -9.8 °C 30.06in /  1017.8hPa Calm   4.0mph /  6.4km/h 74% 0.00in /  0mm
21:30 21.3 °F /  -5.9 °C 14.3 °F /  -9.8 °C 30.06in /  1017.8hPa North 1.0mph /  1.6km/h 6.0mph /  9.7km/h 74% 0.00in /  0mm
21:35 21.3 °F /  -5.9 °C 14.3 °F /  -9.8 °C 30.06in /  1017.8hPa North 2.0mph /  3.2km/h 4.0mph /  6.4km/h 74% 0.00in /  0mm
21:40 21.3 °F /  -5.9 °C 14.3 °F /  -9.8 °C 30.06in /  1017.8hPa NW 2.0mph /  3.2km/h 6.0mph /  9.7km/h 74% 0.00in /  0mm
22:00 21.3 °F /  -5.9 °C 14.0 °F /  -10 °C 30.06in /  1017.8hPa NW 4.0mph /  6.4km/h 6.0mph /  9.7km/h 73% 0.00in /  0mm
22:05 21.5 °F /  -5.8 °C 13.9 °F /  -10.1 °C 30.06in /  1017.8hPa NNW 2.0mph /  3.2km/h 6.0mph /  9.7km/h 72% 0.00in /  0mm
22:15 21.6 °F /  -5.8 °C 14.0 °F /  -10 °C 30.06in /  1017.8hPa NW 2.0mph /  3.2km/h 8.0mph /  12.9km/h 72% 0.00in /  0mm
22:20 21.5 °F /  -5.8 °C 13.9 °F /  -10.1 °C 30.06in /  1017.8hPa Calm   5.0mph /  8km/h 72% 0.00in /  0mm
22:25 21.3 °F /  -5.9 °C 13.7 °F /  -10.2 °C 30.06in /  1017.8hPa Calm   5.0mph /  8km/h 72% 0.00in /  0mm
22:35 21.3 °F /  -5.9 °C 13.7 °F /  -10.2 °C 30.06in /  1017.8hPa NW 2.0mph /  3.2km/h 9.0mph /  14.5km/h 72% 0.00in /  0mm
22:40 21.2 °F /  -6 °C 13.6 °F /  -10.2 °C 30.06in /  1017.8hPa Calm   7.0mph /  11.3km/h 72% 0.00in /  0mm
22:45 20.9 °F /  -6.2 °C 13.3 °F /  -10.4 °C 30.06in /  1017.8hPa NNW 1.0mph /  1.6km/h 5.0mph /  8km/h 72% 0.00in /  0mm
22:50 20.8 °F /  -6.2 °C 13.5 °F /  -10.3 °C 30.06in /  1017.8hPa NW 2.0mph /  3.2km/h 5.0mph /  8km/h 73% 0.00in /  0mm
22:55 20.7 °F /  -6.3 °C 13.4 °F /  -10.3 °C 30.06in /  1017.8hPa NW 2.0mph /  3.2km/h 6.0mph /  9.7km/h 73% 0.00in /  0mm
23:00 20.8 °F /  -6.2 °C 13.5 °F /  -10.3 °C 30.06in /  1017.8hPa NW 3.0mph /  4.8km/h 6.0mph /  9.7km/h 73% 0.00in /  0mm
23:05 20.9 °F /  -6.2 °C 13.6 °F /  -10.2 °C 30.06in /  1017.8hPa NW 2.0mph /  3.2km/h 5.0mph /  8km/h 73% 0.00in /  0mm
23:10 20.8 °F /  -6.2 °C 13.5 °F /  -10.3 °C 30.06in /  1017.8hPa NW 1.0mph /  1.6km/h 5.0mph /  8km/h 73% 0.00in /  0mm
23:15 20.9 °F /  -6.2 °C 13.6 °F /  -10.2 °C 30.06in /  1017.8hPa NW 2.0mph /  3.2km/h 6.0mph /  9.7km/h 73% 0.00in /  0mm
23:20 20.8 °F /  -6.2 °C 13.5 °F /  -10.3 °C 30.06in /  1017.8hPa NW 3.0mph /  4.8km/h 6.0mph /  9.7km/h 73% 0.00in /  0mm
23:25 20.7 °F /  -6.3 °C 13.4 °F /  -10.3 °C 30.06in /  1017.8hPa NW 2.0mph /  3.2km/h 5.0mph /  8km/h 73% 0.00in /  0mm
23:30 20.6 °F /  -6.3 °C 13.3 °F /  -10.4 °C 30.06in /  1017.8hPa NW 1.0mph /  1.6km/h 5.0mph /  8km/h 73% 0.00in /  0mm
23:35 20.5 °F /  -6.4 °C 13.2 °F /  -10.4 °C 30.06in /  1017.8hPa Calm   4.0mph /  6.4km/h 73% 0.00in /  0mm
23:50 20.2 °F /  -6.6 °C 13.2 °F /  -10.4 °C 30.07in /  1018.2hPa Calm   5.0mph /  8km/h 74% 0.00in /  0mm
23:55 20.2 °F /  -6.6 °C 13.2 °F /  -10.4 °C 30.07in /  1018.2hPa NW 1.0mph /  1.6km/h 4.0mph /  6.4km/h 74% 0.00in /  0mm
Westford Weather
Compliments of Weather Underground

 
 
Current Radar Loop:

Copyright © WestfordWeather.net 2007-2014. All rights reserved.